sensor_id;sensor_type;location;lat;lon;timestamp;temperature;humidity
78536;SHT31;67829;51.968;5.684;2023-12-28T00:02:26;11.8;66.2
78536;SHT31;67829;51.968;5.684;2023-12-28T00:04:54;11.8;66.2
78536;SHT31;67829;51.968;5.684;2023-12-28T00:07:23;11.8;66.4
78536;SHT31;67829;51.968;5.684;2023-12-28T00:09:51;11.8;66.6
78536;SHT31;67829;51.968;5.684;2023-12-28T00:12:19;11.8;66.7
78536;SHT31;67829;51.968;5.684;2023-12-28T00:14:51;11.8;66.5
78536;SHT31;67829;51.968;5.684;2023-12-28T00:17:20;11.8;66.5
78536;SHT31;67829;51.968;5.684;2023-12-28T00:19:48;11.8;66.7
78536;SHT31;67829;51.968;5.684;2023-12-28T00:22:17;11.8;66.7
78536;SHT31;67829;51.968;5.684;2023-12-28T00:24:45;11.8;66.5
78536;SHT31;67829;51.968;5.684;2023-12-28T00:27:14;11.8;66.6
78536;SHT31;67829;51.968;5.684;2023-12-28T00:29:42;11.8;66.7
78536;SHT31;67829;51.968;5.684;2023-12-28T00:32:13;11.8;67.3
78536;SHT31;67829;51.968;5.684;2023-12-28T00:34:41;11.8;67.4
78536;SHT31;67829;51.968;5.684;2023-12-28T00:37:10;11.9;67.5
78536;SHT31;67829;51.968;5.684;2023-12-28T00:39:38;11.9;67.6
78536;SHT31;67829;51.968;5.684;2023-12-28T00:42:07;11.9;67.7
78536;SHT31;67829;51.968;5.684;2023-12-28T00:44:36;11.9;67.7
78536;SHT31;67829;51.968;5.684;2023-12-28T00:47:05;11.9;67.5
78536;SHT31;67829;51.968;5.684;2023-12-28T00:49:34;12.0;67.6
78536;SHT31;67829;51.968;5.684;2023-12-28T00:52:03;12.0;67.6
78536;SHT31;67829;51.968;5.684;2023-12-28T00:54:32;12.0;67.7
78536;SHT31;67829;51.968;5.684;2023-12-28T00:57:00;12.0;67.8
78536;SHT31;67829;51.968;5.684;2023-12-28T00:59:29;12.0;67.8
78536;SHT31;67829;51.968;5.684;2023-12-28T01:01:57;12.0;67.9
78536;SHT31;67829;51.968;5.684;2023-12-28T01:04:26;12.0;68.0
78536;SHT31;67829;51.968;5.684;2023-12-28T01:06:56;12.0;67.9
78536;SHT31;67829;51.968;5.684;2023-12-28T01:09:25;12.1;67.7
78536;SHT31;67829;51.968;5.684;2023-12-28T01:11:53;12.1;67.9
78536;SHT31;67829;51.968;5.684;2023-12-28T01:14:21;12.1;67.7
78536;SHT31;67829;51.968;5.684;2023-12-28T01:16:50;12.1;67.7
78536;SHT31;67829;51.968;5.684;2023-12-28T01:19:18;12.1;67.7
78536;SHT31;67829;51.968;5.684;2023-12-28T01:21:48;12.1;67.6
78536;SHT31;67829;51.968;5.684;2023-12-28T01:24:16;12.1;67.7
78536;SHT31;67829;51.968;5.684;2023-12-28T01:26:45;12.1;67.9
78536;SHT31;67829;51.968;5.684;2023-12-28T01:29:15;12.0;67.8
78536;SHT31;67829;51.968;5.684;2023-12-28T01:31:44;12.0;68.0
78536;SHT31;67829;51.968;5.684;2023-12-28T01:34:12;12.0;68.1
78536;SHT31;67829;51.968;5.684;2023-12-28T01:36:41;12.0;68.2
78536;SHT31;67829;51.968;5.684;2023-12-28T01:39:10;11.9;68.3
78536;SHT31;67829;51.968;5.684;2023-12-28T01:41:41;11.9;68.5
78536;SHT31;67829;51.968;5.684;2023-12-28T01:44:12;11.9;68.7
78536;SHT31;67829;51.968;5.684;2023-12-28T01:46:41;11.9;68.9
78536;SHT31;67829;51.968;5.684;2023-12-28T01:49:12;11.9;69.0
78536;SHT31;67829;51.968;5.684;2023-12-28T01:51:42;11.9;69.2
78536;SHT31;67829;51.968;5.684;2023-12-28T01:54:13;11.9;69.2
78536;SHT31;67829;51.968;5.684;2023-12-28T01:56:42;11.9;69.2
78536;SHT31;67829;51.968;5.684;2023-12-28T01:59:12;11.9;69.1
78536;SHT31;67829;51.968;5.684;2023-12-28T02:01:41;11.9;69.0
78536;SHT31;67829;51.968;5.684;2023-12-28T02:04:10;11.9;69.1
78536;SHT31;67829;51.968;5.684;2023-12-28T02:06:41;11.9;69.2
78536;SHT31;67829;51.968;5.684;2023-12-28T02:09:10;11.9;69.2
78536;SHT31;67829;51.968;5.684;2023-12-28T02:11:38;11.9;69.3
78536;SHT31;67829;51.968;5.684;2023-12-28T02:14:06;11.9;69.4
78536;SHT31;67829;51.968;5.684;2023-12-28T02:16:40;11.8;69.5
78536;SHT31;67829;51.968;5.684;2023-12-28T02:21:54;11.8;69.6
78536;SHT31;67829;51.968;5.684;2023-12-28T02:24:24;11.8;69.7
78536;SHT31;67829;51.968;5.684;2023-12-28T02:26:52;11.8;69.7
78536;SHT31;67829;51.968;5.684;2023-12-28T02:29:21;11.8;69.4
78536;SHT31;67829;51.968;5.684;2023-12-28T02:31:56;11.8;69.3
78536;SHT31;67829;51.968;5.684;2023-12-28T02:34:36;11.8;69.5
78536;SHT31;67829;51.968;5.684;2023-12-28T02:37:07;11.7;69.5
78536;SHT31;67829;51.968;5.684;2023-12-28T02:39:38;11.7;69.4
78536;SHT31;67829;51.968;5.684;2023-12-28T02:42:07;11.7;69.5
78536;SHT31;67829;51.968;5.684;2023-12-28T02:44:36;11.7;69.7
78536;SHT31;67829;51.968;5.684;2023-12-28T02:47:05;11.7;70.0
78536;SHT31;67829;51.968;5.684;2023-12-28T02:49:33;11.7;70.1
78536;SHT31;67829;51.968;5.684;2023-12-28T02:52:02;11.6;70.1
78536;SHT31;67829;51.968;5.684;2023-12-28T02:54:31;11.6;70.2
78536;SHT31;67829;51.968;5.684;2023-12-28T02:57:00;11.6;70.4
78536;SHT31;67829;51.968;5.684;2023-12-28T02:59:28;11.6;70.5
78536;SHT31;67829;51.968;5.684;2023-12-28T03:01:56;11.6;70.5
78536;SHT31;67829;51.968;5.684;2023-12-28T03:04:25;11.6;70.6
78536;SHT31;67829;51.968;5.684;2023-12-28T03:06:53;11.6;70.9
78536;SHT31;67829;51.968;5.684;2023-12-28T03:09:22;11.6;70.7
78536;SHT31;67829;51.968;5.684;2023-12-28T03:11:51;11.6;70.8
78536;SHT31;67829;51.968;5.684;2023-12-28T03:14:19;11.6;70.8
78536;SHT31;67829;51.968;5.684;2023-12-28T03:16:48;11.6;70.8
78536;SHT31;67829;51.968;5.684;2023-12-28T03:19:17;11.6;70.7
78536;SHT31;67829;51.968;5.684;2023-12-28T03:21:45;11.6;70.7
78536;SHT31;67829;51.968;5.684;2023-12-28T03:24:14;11.6;70.7
78536;SHT31;67829;51.968;5.684;2023-12-28T03:26:42;11.6;70.9
78536;SHT31;67829;51.968;5.684;2023-12-28T03:29:12;11.6;70.9
78536;SHT31;67829;51.968;5.684;2023-12-28T03:31:41;11.6;71.0
78536;SHT31;67829;51.968;5.684;2023-12-28T03:34:09;11.6;71.1
78536;SHT31;67829;51.968;5.684;2023-12-28T03:36:38;11.6;71.1
78536;SHT31;67829;51.968;5.684;2023-12-28T03:39:08;11.6;71.0
78536;SHT31;67829;51.968;5.684;2023-12-28T03:41:36;11.7;70.9
78536;SHT31;67829;51.968;5.684;2023-12-28T03:44:05;11.7;70.9
78536;SHT31;67829;51.968;5.684;2023-12-28T03:46:34;11.7;70.5
78536;SHT31;67829;51.968;5.684;2023-12-28T03:49:02;11.8;70.3
78536;SHT31;67829;51.968;5.684;2023-12-28T03:51:31;11.8;70.4
78536;SHT31;67829;51.968;5.684;2023-12-28T03:53:59;11.8;70.3
78536;SHT31;67829;51.968;5.684;2023-12-28T03:56:28;11.8;70.3
78536;SHT31;67829;51.968;5.684;2023-12-28T03:58:59;11.9;70.1
78536;SHT31;67829;51.968;5.684;2023-12-28T04:01:27;11.9;70.1
78536;SHT31;67829;51.968;5.684;2023-12-28T04:03:56;11.9;69.7
78536;SHT31;67829;51.968;5.684;2023-12-28T04:06:24;11.9;69.5
78536;SHT31;67829;51.968;5.684;2023-12-28T04:08:55;11.9;69.2
78536;SHT31;67829;51.968;5.684;2023-12-28T04:11:24;11.9;69.2
78536;SHT31;67829;51.968;5.684;2023-12-28T04:13:54;12.0;69.1
78536;SHT31;67829;51.968;5.684;2023-12-28T04:16:25;12.0;68.9
78536;SHT31;67829;51.968;5.684;2023-12-28T04:18:53;12.0;68.8
78536;SHT31;67829;51.968;5.684;2023-12-28T04:21:22;12.0;68.6
78536;SHT31;67829;51.968;5.684;2023-12-28T04:23:51;12.0;68.6
78536;SHT31;67829;51.968;5.684;2023-12-28T04:26:20;12.0;68.6
78536;SHT31;67829;51.968;5.684;2023-12-28T04:28:50;12.0;68.5
78536;SHT31;67829;51.968;5.684;2023-12-28T04:31:19;12.0;68.5
78536;SHT31;67829;51.968;5.684;2023-12-28T04:33:47;11.9;68.7
78536;SHT31;67829;51.968;5.684;2023-12-28T04:36:16;11.9;68.4
78536;SHT31;67829;51.968;5.684;2023-12-28T04:38:44;11.9;68.5
78536;SHT31;67829;51.968;5.684;2023-12-28T04:41:13;11.9;68.5
78536;SHT31;67829;51.968;5.684;2023-12-28T04:43:41;11.9;68.8
78536;SHT31;67829;51.968;5.684;2023-12-28T04:46:10;11.9;68.6
78536;SHT31;67829;51.968;5.684;2023-12-28T04:48:40;12.0;68.5
78536;SHT31;67829;51.968;5.684;2023-12-28T04:51:09;12.0;68.3
78536;SHT31;67829;51.968;5.684;2023-12-28T04:53:40;12.0;68.3
78536;SHT31;67829;51.968;5.684;2023-12-28T04:56:09;12.0;68.5
78536;SHT31;67829;51.968;5.684;2023-12-28T04:58:37;12.0;68.3
78536;SHT31;67829;51.968;5.684;2023-12-28T05:01:08;12.0;67.9
78536;SHT31;67829;51.968;5.684;2023-12-28T05:03:36;12.0;68.1
78536;SHT31;67829;51.968;5.684;2023-12-28T05:06:05;12.0;68.0
78536;SHT31;67829;51.968;5.684;2023-12-28T05:08:33;12.1;68.0
78536;SHT31;67829;51.968;5.684;2023-12-28T05:11:02;12.1;67.7
78536;SHT31;67829;51.968;5.684;2023-12-28T05:13:32;12.1;67.7
78536;SHT31;67829;51.968;5.684;2023-12-28T05:16:01;12.1;67.6
78536;SHT31;67829;51.968;5.684;2023-12-28T05:18:29;12.2;67.3
78536;SHT31;67829;51.968;5.684;2023-12-28T05:20:58;12.2;67.0
78536;SHT31;67829;51.968;5.684;2023-12-28T05:23:26;12.2;66.8
78536;SHT31;67829;51.968;5.684;2023-12-28T05:25:55;12.2;66.6
78536;SHT31;67829;51.968;5.684;2023-12-28T05:28:23;12.2;66.4
78536;SHT31;67829;51.968;5.684;2023-12-28T05:30:52;12.3;66.3
78536;SHT31;67829;51.968;5.684;2023-12-28T05:33:20;12.3;66.2
78536;SHT31;67829;51.968;5.684;2023-12-28T05:35:49;12.3;66.1
78536;SHT31;67829;51.968;5.684;2023-12-28T05:38:17;12.3;66.2
78536;SHT31;67829;51.968;5.684;2023-12-28T05:40:46;12.3;65.7
78536;SHT31;67829;51.968;5.684;2023-12-28T05:43:14;12.3;65.7
78536;SHT31;67829;51.968;5.684;2023-12-28T05:45:43;12.3;65.5
78536;SHT31;67829;51.968;5.684;2023-12-28T05:48:11;12.4;65.6
78536;SHT31;67829;51.968;5.684;2023-12-28T05:50:40;12.4;65.3
78536;SHT31;67829;51.968;5.684;2023-12-28T05:53:08;12.4;65.2
78536;SHT31;67829;51.968;5.684;2023-12-28T05:55:40;12.4;65.2
78536;SHT31;67829;51.968;5.684;2023-12-28T05:58:10;12.4;65.1
78536;SHT31;67829;51.968;5.684;2023-12-28T06:00:38;12.4;65.2
78536;SHT31;67829;51.968;5.684;2023-12-28T06:03:07;12.4;65.3
78536;SHT31;67829;51.968;5.684;2023-12-28T06:05:35;12.4;65.4
78536;SHT31;67829;51.968;5.684;2023-12-28T06:08:04;12.4;65.3
78536;SHT31;67829;51.968;5.684;2023-12-28T06:10:32;12.4;65.0
78536;SHT31;67829;51.968;5.684;2023-12-28T06:13:02;12.4;65.6
78536;SHT31;67829;51.968;5.684;2023-12-28T06:15:31;12.4;65.5
78536;SHT31;67829;51.968;5.684;2023-12-28T06:17:59;12.5;65.5
78536;SHT31;67829;51.968;5.684;2023-12-28T06:20:31;12.5;65.4
78536;SHT31;67829;51.968;5.684;2023-12-28T06:22:59;12.5;65.4
78536;SHT31;67829;51.968;5.684;2023-12-28T06:25:28;12.5;65.3
78536;SHT31;67829;51.968;5.684;2023-12-28T06:27:56;12.5;65.2
78536;SHT31;67829;51.968;5.684;2023-12-28T06:30:25;12.5;65.2
78536;SHT31;67829;51.968;5.684;2023-12-28T06:32:53;12.5;65.1
78536;SHT31;67829;51.968;5.684;2023-12-28T06:35:22;12.5;65.0
78536;SHT31;67829;51.968;5.684;2023-12-28T06:37:50;12.5;64.8
78536;SHT31;67829;51.968;5.684;2023-12-28T06:40:21;12.5;65.0
78536;SHT31;67829;51.968;5.684;2023-12-28T06:42:49;12.5;65.2
78536;SHT31;67829;51.968;5.684;2023-12-28T06:45:18;12.5;64.6
78536;SHT31;67829;51.968;5.684;2023-12-28T06:47:49;12.5;64.8
78536;SHT31;67829;51.968;5.684;2023-12-28T06:50:17;12.5;64.7
78536;SHT31;67829;51.968;5.684;2023-12-28T06:52:45;12.5;64.7
78536;SHT31;67829;51.968;5.684;2023-12-28T06:55:14;12.5;64.6
78536;SHT31;67829;51.968;5.684;2023-12-28T06:57:42;12.5;64.6
78536;SHT31;67829;51.968;5.684;2023-12-28T07:00:15;12.6;64.7
78536;SHT31;67829;51.968;5.684;2023-12-28T07:02:43;12.6;64.8
78536;SHT31;67829;51.968;5.684;2023-12-28T07:05:12;12.6;64.6
78536;SHT31;67829;51.968;5.684;2023-12-28T07:07:41;12.6;64.5
78536;SHT31;67829;51.968;5.684;2023-12-28T07:10:10;12.6;64.5
78536;SHT31;67829;51.968;5.684;2023-12-28T07:12:38;12.6;64.2
78536;SHT31;67829;51.968;5.684;2023-12-28T07:15:08;12.6;64.3
78536;SHT31;67829;51.968;5.684;2023-12-28T07:17:40;12.6;63.9
78536;SHT31;67829;51.968;5.684;2023-12-28T07:20:10;12.6;63.9
78536;SHT31;67829;51.968;5.684;2023-12-28T07:22:39;12.6;64.0
78536;SHT31;67829;51.968;5.684;2023-12-28T07:25:08;12.6;64.0
78536;SHT31;67829;51.968;5.684;2023-12-28T07:27:36;12.5;64.3
78536;SHT31;67829;51.968;5.684;2023-12-28T07:30:06;12.5;64.0
78536;SHT31;67829;51.968;5.684;2023-12-28T07:32:37;12.5;64.1
78536;SHT31;67829;51.968;5.684;2023-12-28T07:35:07;12.5;64.2
78536;SHT31;67829;51.968;5.684;2023-12-28T07:37:35;12.5;64.2
78536;SHT31;67829;51.968;5.684;2023-12-28T07:40:04;12.5;64.3
78536;SHT31;67829;51.968;5.684;2023-12-28T07:42:34;12.5;64.4
78536;SHT31;67829;51.968;5.684;2023-12-28T07:45:03;12.4;64.5
78536;SHT31;67829;51.968;5.684;2023-12-28T07:47:31;12.4;64.8
78536;SHT31;67829;51.968;5.684;2023-12-28T07:50:00;12.4;64.4
78536;SHT31;67829;51.968;5.684;2023-12-28T07:52:31;12.4;64.8
78536;SHT31;67829;51.968;5.684;2023-12-28T07:54:59;12.4;65.0
78536;SHT31;67829;51.968;5.684;2023-12-28T07:57:28;12.4;65.3
78536;SHT31;67829;51.968;5.684;2023-12-28T07:59:57;12.4;65.2
78536;SHT31;67829;51.968;5.684;2023-12-28T08:02:27;12.4;64.7
78536;SHT31;67829;51.968;5.684;2023-12-28T08:04:56;12.4;64.8
78536;SHT31;67829;51.968;5.684;2023-12-28T08:07:25;12.4;64.7
78536;SHT31;67829;51.968;5.684;2023-12-28T08:09:53;12.5;64.7
78536;SHT31;67829;51.968;5.684;2023-12-28T08:12:21;12.5;64.9
78536;SHT31;67829;51.968;5.684;2023-12-28T08:14:50;12.5;64.8
78536;SHT31;67829;51.968;5.684;2023-12-28T08:17:19;12.5;65.3
78536;SHT31;67829;51.968;5.684;2023-12-28T08:19:48;12.5;64.9
78536;SHT31;67829;51.968;5.684;2023-12-28T08:22:16;12.6;64.9
78536;SHT31;67829;51.968;5.684;2023-12-28T08:24:45;12.6;65.0
78536;SHT31;67829;51.968;5.684;2023-12-28T08:27:14;12.6;64.9
78536;SHT31;67829;51.968;5.684;2023-12-28T08:29:42;12.6;64.7
78536;SHT31;67829;51.968;5.684;2023-12-28T08:32:13;12.6;65.0
78536;SHT31;67829;51.968;5.684;2023-12-28T08:34:43;12.7;64.7
78536;SHT31;67829;51.968;5.684;2023-12-28T08:37:12;12.7;64.9
78536;SHT31;67829;51.968;5.684;2023-12-28T08:39:41;12.7;64.2
78536;SHT31;67829;51.968;5.684;2023-12-28T08:42:09;12.7;64.2
78536;SHT31;67829;51.968;5.684;2023-12-28T08:44:38;12.7;64.1
78536;SHT31;67829;51.968;5.684;2023-12-28T08:47:07;12.8;64.4
78536;SHT31;67829;51.968;5.684;2023-12-28T08:49:36;12.8;64.1
78536;SHT31;67829;51.968;5.684;2023-12-28T08:52:05;12.8;63.6
78536;SHT31;67829;51.968;5.684;2023-12-28T08:54:33;12.8;63.8
78536;SHT31;67829;51.968;5.684;2023-12-28T08:57:02;12.8;63.7
78536;SHT31;67829;51.968;5.684;2023-12-28T08:59:31;12.8;63.4
78536;SHT31;67829;51.968;5.684;2023-12-28T09:01:59;12.8;63.7
78536;SHT31;67829;51.968;5.684;2023-12-28T09:04:28;12.8;63.6
78536;SHT31;67829;51.968;5.684;2023-12-28T09:06:57;12.8;63.7
78536;SHT31;67829;51.968;5.684;2023-12-28T09:09:25;12.8;63.9
78536;SHT31;67829;51.968;5.684;2023-12-28T09:11:53;12.8;63.5
78536;SHT31;67829;51.968;5.684;2023-12-28T09:14:22;12.8;63.5
78536;SHT31;67829;51.968;5.684;2023-12-28T09:16:50;12.8;63.6
78536;SHT31;67829;51.968;5.684;2023-12-28T09:19:19;12.8;63.3
78536;SHT31;67829;51.968;5.684;2023-12-28T09:21:47;12.8;63.6
78536;SHT31;67829;51.968;5.684;2023-12-28T09:24:15;12.8;63.9
78536;SHT31;67829;51.968;5.684;2023-12-28T09:26:47;12.8;63.9
78536;SHT31;67829;51.968;5.684;2023-12-28T09:29:16;12.8;63.5
78536;SHT31;67829;51.968;5.684;2023-12-28T09:31:45;12.8;63.6
78536;SHT31;67829;51.968;5.684;2023-12-28T09:34:14;12.8;63.7
78536;SHT31;67829;51.968;5.684;2023-12-28T09:36:42;12.8;63.9
78536;SHT31;67829;51.968;5.684;2023-12-28T09:39:11;12.9;63.7
78536;SHT31;67829;51.968;5.684;2023-12-28T09:41:43;12.9;63.6
78536;SHT31;67829;51.968;5.684;2023-12-28T09:44:15;12.9;63.5
78536;SHT31;67829;51.968;5.684;2023-12-28T09:46:45;12.9;63.6
78536;SHT31;67829;51.968;5.684;2023-12-28T09:49:16;12.9;63.6
78536;SHT31;67829;51.968;5.684;2023-12-28T09:51:46;12.9;63.6
78536;SHT31;67829;51.968;5.684;2023-12-28T09:54:15;12.9;63.5
78536;SHT31;67829;51.968;5.684;2023-12-28T09:56:47;13.0;63.4
78536;SHT31;67829;51.968;5.684;2023-12-28T09:59:19;13.0;63.0
78536;SHT31;67829;51.968;5.684;2023-12-28T10:01:48;13.0;63.0
78536;SHT31;67829;51.968;5.684;2023-12-28T10:04:17;13.0;63.0
78536;SHT31;67829;51.968;5.684;2023-12-28T10:06:46;13.0;62.9
78536;SHT31;67829;51.968;5.684;2023-12-28T10:09:17;13.0;62.8
78536;SHT31;67829;51.968;5.684;2023-12-28T10:11:45;13.1;63.0
78536;SHT31;67829;51.968;5.684;2023-12-28T10:14:14;13.1;63.1
78536;SHT31;67829;51.968;5.684;2023-12-28T10:16:43;13.1;63.2
78536;SHT31;67829;51.968;5.684;2023-12-28T10:19:11;13.1;62.8
78536;SHT31;67829;51.968;5.684;2023-12-28T10:21:42;13.1;63.1
78536;SHT31;67829;51.968;5.684;2023-12-28T10:24:12;13.1;62.8
78536;SHT31;67829;51.968;5.684;2023-12-28T10:26:41;13.1;62.7
78536;SHT31;67829;51.968;5.684;2023-12-28T10:29:09;13.1;62.6
78536;SHT31;67829;51.968;5.684;2023-12-28T10:31:41;13.1;62.8
78536;SHT31;67829;51.968;5.684;2023-12-28T10:34:10;13.1;62.6
78536;SHT31;67829;51.968;5.684;2023-12-28T10:36:40;13.1;62.7
78536;SHT31;67829;51.968;5.684;2023-12-28T10:39:10;13.2;62.1
78536;SHT31;67829;51.968;5.684;2023-12-28T10:41:41;13.2;62.3
78536;SHT31;67829;51.968;5.684;2023-12-28T10:44:19;13.2;62.3
78536;SHT31;67829;51.968;5.684;2023-12-28T10:46:50;13.2;62.1
78536;SHT31;67829;51.968;5.684;2023-12-28T10:49:27;13.2;61.9
78536;SHT31;67829;51.968;5.684;2023-12-28T10:51:56;13.2;62.1
78536;SHT31;67829;51.968;5.684;2023-12-28T10:54:37;13.3;61.5
78536;SHT31;67829;51.968;5.684;2023-12-28T10:57:12;13.3;61.9
78536;SHT31;67829;51.968;5.684;2023-12-28T10:59:52;13.3;62.1
78536;SHT31;67829;51.968;5.684;2023-12-28T11:02:32;13.3;62.2
78536;SHT31;67829;51.968;5.684;2023-12-28T11:05:03;13.3;61.8
78536;SHT31;67829;51.968;5.684;2023-12-28T11:07:33;13.3;61.4
78536;SHT31;67829;51.968;5.684;2023-12-28T11:10:06;13.3;61.2
78536;SHT31;67829;51.968;5.684;2023-12-28T11:12:37;13.3;61.8
78536;SHT31;67829;51.968;5.684;2023-12-28T11:15:08;13.3;61.3
78536;SHT31;67829;51.968;5.684;2023-12-28T11:17:39;13.3;61.5
78536;SHT31;67829;51.968;5.684;2023-12-28T11:20:09;13.3;61.7
78536;SHT31;67829;51.968;5.684;2023-12-28T11:22:38;13.3;61.7
78536;SHT31;67829;51.968;5.684;2023-12-28T11:25:18;13.3;61.9
78536;SHT31;67829;51.968;5.684;2023-12-28T11:27:47;13.3;61.4
78536;SHT31;67829;51.968;5.684;2023-12-28T11:30:16;13.3;61.7
78536;SHT31;67829;51.968;5.684;2023-12-28T11:32:44;13.3;61.5
78536;SHT31;67829;51.968;5.684;2023-12-28T11:35:13;13.3;61.2
78536;SHT31;67829;51.968;5.684;2023-12-28T11:37:46;13.3;61.5
78536;SHT31;67829;51.968;5.684;2023-12-28T11:40:19;13.3;61.8
78536;SHT31;67829;51.968;5.684;2023-12-28T11:42:54;13.3;61.4
78536;SHT31;67829;51.968;5.684;2023-12-28T11:45:23;13.3;61.6
78536;SHT31;67829;51.968;5.684;2023-12-28T11:48:00;13.4;61.5
78536;SHT31;67829;51.968;5.684;2023-12-28T11:50:29;13.4;61.5
78536;SHT31;67829;51.968;5.684;2023-12-28T11:52:58;13.4;61.4
78536;SHT31;67829;51.968;5.684;2023-12-28T11:55:26;13.4;61.0
78536;SHT31;67829;51.968;5.684;2023-12-28T11:57:55;13.4;61.2
78536;SHT31;67829;51.968;5.684;2023-12-28T12:00:26;13.4;61.3
78536;SHT31;67829;51.968;5.684;2023-12-28T12:02:55;13.4;61.5
78536;SHT31;67829;51.968;5.684;2023-12-28T12:05:24;13.4;61.3
78536;SHT31;67829;51.968;5.684;2023-12-28T12:07:53;13.4;61.3
78536;SHT31;67829;51.968;5.684;2023-12-28T12:10:23;13.4;61.4
78536;SHT31;67829;51.968;5.684;2023-12-28T12:12:53;13.4;61.2
78536;SHT31;67829;51.968;5.684;2023-12-28T12:15:22;13.4;61.2
78536;SHT31;67829;51.968;5.684;2023-12-28T12:17:51;13.4;61.8
78536;SHT31;67829;51.968;5.684;2023-12-28T12:20:20;13.4;61.1
78536;SHT31;67829;51.968;5.684;2023-12-28T12:22:49;13.5;61.5
78536;SHT31;67829;51.968;5.684;2023-12-28T12:25:18;13.5;60.9
78536;SHT31;67829;51.968;5.684;2023-12-28T12:27:48;13.5;60.4
78536;SHT31;67829;51.968;5.684;2023-12-28T12:30:16;13.5;60.5
78536;SHT31;67829;51.968;5.684;2023-12-28T12:32:45;13.5;60.5
78536;SHT31;67829;51.968;5.684;2023-12-28T12:35:15;13.5;60.8
78536;SHT31;67829;51.968;5.684;2023-12-28T12:37:44;13.5;60.5
78536;SHT31;67829;51.968;5.684;2023-12-28T12:40:16;13.5;60.7
78536;SHT31;67829;51.968;5.684;2023-12-28T12:42:53;13.5;60.8
78536;SHT31;67829;51.968;5.684;2023-12-28T12:45:22;13.5;60.5
78536;SHT31;67829;51.968;5.684;2023-12-28T12:47:53;13.5;61.0
78536;SHT31;67829;51.968;5.684;2023-12-28T12:50:21;13.5;60.8
78536;SHT31;67829;51.968;5.684;2023-12-28T12:52:51;13.5;60.8
78536;SHT31;67829;51.968;5.684;2023-12-28T12:55:22;13.5;60.4
78536;SHT31;67829;51.968;5.684;2023-12-28T12:57:52;13.5;60.8
78536;SHT31;67829;51.968;5.684;2023-12-28T13:00:22;13.5;60.9
78536;SHT31;67829;51.968;5.684;2023-12-28T13:02:51;13.5;60.3
78536;SHT31;67829;51.968;5.684;2023-12-28T13:05:24;13.5;60.5
78536;SHT31;67829;51.968;5.684;2023-12-28T13:07:53;13.5;60.5
78536;SHT31;67829;51.968;5.684;2023-12-28T13:10:23;13.5;60.7
78536;SHT31;67829;51.968;5.684;2023-12-28T13:12:52;13.5;60.7
78536;SHT31;67829;51.968;5.684;2023-12-28T13:15:22;13.5;60.1
78536;SHT31;67829;51.968;5.684;2023-12-28T13:17:51;13.5;60.3
78536;SHT31;67829;51.968;5.684;2023-12-28T13:20:19;13.5;59.9
78536;SHT31;67829;51.968;5.684;2023-12-28T13:22:48;13.5;60.2
78536;SHT31;67829;51.968;5.684;2023-12-28T13:25:17;13.5;60.6
78536;SHT31;67829;51.968;5.684;2023-12-28T13:27:45;13.5;60.5
78536;SHT31;67829;51.968;5.684;2023-12-28T13:30:14;13.4;60.3
78536;SHT31;67829;51.968;5.684;2023-12-28T13:32:43;13.4;60.4
78536;SHT31;67829;51.968;5.684;2023-12-28T13:35:11;13.4;60.9
78536;SHT31;67829;51.968;5.684;2023-12-28T13:37:40;13.4;60.9
78536;SHT31;67829;51.968;5.684;2023-12-28T13:40:09;13.4;60.8
78536;SHT31;67829;51.968;5.684;2023-12-28T13:42:38;13.4;61.3
78536;SHT31;67829;51.968;5.684;2023-12-28T13:45:08;13.4;61.1
78536;SHT31;67829;51.968;5.684;2023-12-28T13:47:36;13.4;61.5
78536;SHT31;67829;51.968;5.684;2023-12-28T13:50:06;13.4;60.8
78536;SHT31;67829;51.968;5.684;2023-12-28T13:52:35;13.4;61.2
78536;SHT31;67829;51.968;5.684;2023-12-28T13:55:04;13.4;61.2
78536;SHT31;67829;51.968;5.684;2023-12-28T13:57:32;13.4;61.1
78536;SHT31;67829;51.968;5.684;2023-12-28T14:00:00;13.4;60.9
78536;SHT31;67829;51.968;5.684;2023-12-28T14:02:29;13.4;60.7
78536;SHT31;67829;51.968;5.684;2023-12-28T14:04:58;13.4;61.1
78536;SHT31;67829;51.968;5.684;2023-12-28T14:07:27;13.4;61.3
78536;SHT31;67829;51.968;5.684;2023-12-28T14:09:55;13.4;61.3
78536;SHT31;67829;51.968;5.684;2023-12-28T14:12:23;13.4;61.0
78536;SHT31;67829;51.968;5.684;2023-12-28T14:14:52;13.4;60.9
78536;SHT31;67829;51.968;5.684;2023-12-28T14:17:20;13.4;61.2
78536;SHT31;67829;51.968;5.684;2023-12-28T14:19:51;13.4;61.2
78536;SHT31;67829;51.968;5.684;2023-12-28T14:22:20;13.4;61.3
78536;SHT31;67829;51.968;5.684;2023-12-28T14:24:50;13.4;61.1
78536;SHT31;67829;51.968;5.684;2023-12-28T14:27:21;13.4;61.3
78536;SHT31;67829;51.968;5.684;2023-12-28T14:29:54;13.4;61.1
78536;SHT31;67829;51.968;5.684;2023-12-28T14:32:23;13.4;61.1
78536;SHT31;67829;51.968;5.684;2023-12-28T14:34:54;13.4;61.3
78536;SHT31;67829;51.968;5.684;2023-12-28T14:37:22;13.4;61.3
78536;SHT31;67829;51.968;5.684;2023-12-28T14:39:51;13.4;61.5
78536;SHT31;67829;51.968;5.684;2023-12-28T14:42:19;13.4;61.5
78536;SHT31;67829;51.968;5.684;2023-12-28T14:44:48;13.4;61.2
78536;SHT31;67829;51.968;5.684;2023-12-28T14:47:17;13.4;61.4
78536;SHT31;67829;51.968;5.684;2023-12-28T14:49:46;13.4;61.6
78536;SHT31;67829;51.968;5.684;2023-12-28T14:52:14;13.4;61.6
78536;SHT31;67829;51.968;5.684;2023-12-28T14:54:42;13.4;61.5
78536;SHT31;67829;51.968;5.684;2023-12-28T14:57:12;13.4;61.5
78536;SHT31;67829;51.968;5.684;2023-12-28T14:59:40;13.3;61.9
78536;SHT31;67829;51.968;5.684;2023-12-28T15:02:09;13.3;61.9
78536;SHT31;67829;51.968;5.684;2023-12-28T15:04:37;13.3;61.7
78536;SHT31;67829;51.968;5.684;2023-12-28T15:07:07;13.3;61.8
78536;SHT31;67829;51.968;5.684;2023-12-28T15:09:35;13.3;61.3
78536;SHT31;67829;51.968;5.684;2023-12-28T15:12:05;13.3;61.9
78536;SHT31;67829;51.968;5.684;2023-12-28T15:14:35;13.3;61.8
78536;SHT31;67829;51.968;5.684;2023-12-28T15:17:04;13.3;61.6
78536;SHT31;67829;51.968;5.684;2023-12-28T15:19:33;13.3;61.7
78536;SHT31;67829;51.968;5.684;2023-12-28T15:22:04;13.3;61.8
78536;SHT31;67829;51.968;5.684;2023-12-28T15:24:33;13.3;62.0
78536;SHT31;67829;51.968;5.684;2023-12-28T15:27:02;13.3;61.7
78536;SHT31;67829;51.968;5.684;2023-12-28T15:29:33;13.3;61.3
78536;SHT31;67829;51.968;5.684;2023-12-28T15:32:02;13.3;61.5
78536;SHT31;67829;51.968;5.684;2023-12-28T15:34:31;13.3;61.5
78536;SHT31;67829;51.968;5.684;2023-12-28T15:36:59;13.3;61.7
78536;SHT31;67829;51.968;5.684;2023-12-28T15:39:27;13.3;61.6
78536;SHT31;67829;51.968;5.684;2023-12-28T15:41:59;13.3;61.7
78536;SHT31;67829;51.968;5.684;2023-12-28T15:44:28;13.3;61.3
78536;SHT31;67829;51.968;5.684;2023-12-28T15:46:57;13.3;61.0
78536;SHT31;67829;51.968;5.684;2023-12-28T15:49:26;13.3;61.0
78536;SHT31;67829;51.968;5.684;2023-12-28T15:51:55;13.3;60.9
78536;SHT31;67829;51.968;5.684;2023-12-28T15:54:24;13.3;61.0
78536;SHT31;67829;51.968;5.684;2023-12-28T15:56:52;13.3;61.0
78536;SHT31;67829;51.968;5.684;2023-12-28T15:59:21;13.3;61.2
78536;SHT31;67829;51.968;5.684;2023-12-28T16:01:49;13.3;61.3
78536;SHT31;67829;51.968;5.684;2023-12-28T16:04:18;13.2;60.9
78536;SHT31;67829;51.968;5.684;2023-12-28T16:06:47;13.2;61.0
78536;SHT31;67829;51.968;5.684;2023-12-28T16:09:15;13.2;61.2
78536;SHT31;67829;51.968;5.684;2023-12-28T16:11:44;13.2;61.3
78536;SHT31;67829;51.968;5.684;2023-12-28T16:14:13;13.2;61.1
78536;SHT31;67829;51.968;5.684;2023-12-28T16:16:45;13.2;61.2
78536;SHT31;67829;51.968;5.684;2023-12-28T16:19:15;13.2;61.4